createdAt,value
2022-12-12T00:00:09.704Z,18.27
2022-12-12T00:02:41.495Z,22.45
2022-12-12T00:05:12.740Z,20.20
2022-12-12T00:07:40.020Z,22.70
2022-12-12T00:10:08.586Z,20.13
2022-12-12T00:12:35.907Z,19.88
2022-12-12T00:15:03.020Z,20.15
2022-12-12T00:17:30.089Z,20.45
2022-12-12T00:19:57.035Z,21.67
2022-12-12T00:22:24.075Z,20.15
2022-12-12T00:24:50.959Z,19.60
2022-12-12T00:27:17.887Z,22.88
2022-12-12T00:29:45.068Z,19.75
2022-12-12T00:32:12.256Z,21.98
2022-12-12T00:34:39.227Z,20.02
2022-12-12T00:37:06.195Z,22.15
2022-12-12T00:39:33.279Z,17.85
2022-12-12T00:42:00.358Z,21.75
2022-12-12T00:44:27.401Z,23.25
2022-12-12T00:46:54.380Z,22.88
2022-12-12T00:49:24.511Z,20.40
2022-12-12T00:51:52.750Z,18.73
2022-12-12T00:54:20.591Z,20.27
2022-12-12T00:56:47.526Z,19.60
2022-12-12T00:59:15.190Z,21.42
2022-12-12T01:01:42.194Z,24.67
2022-12-12T01:04:09.092Z,22.15
2022-12-12T01:06:36.759Z,21.83
2022-12-12T01:09:04.549Z,21.15
2022-12-12T01:11:31.703Z,19.80
2022-12-12T01:13:58.813Z,21.83
2022-12-12T01:16:26.501Z,23.27
2022-12-12T01:18:53.693Z,20.42
2022-12-12T01:21:21.520Z,23.38
2022-12-12T01:23:48.961Z,20.17
2022-12-12T01:26:19.849Z,24.15
2022-12-12T01:28:47.397Z,24.05
2022-12-12T01:31:15.168Z,21.15
2022-12-12T01:33:46.478Z,22.83
2022-12-12T01:36:18.659Z,22.98
2022-12-12T01:38:47.417Z,21.17
2022-12-12T01:41:15.175Z,20.48
2022-12-12T01:43:42.431Z,21.85
2022-12-12T01:46:28.181Z,20.35
2022-12-12T01:49:00.465Z,19.63
2022-12-12T01:51:29.583Z,19.33
2022-12-12T01:54:19.369Z,21.93
2022-12-12T01:56:48.878Z,22.70
2022-12-12T01:59:19.413Z,19.88
2022-12-12T02:01:46.574Z,20.38
2022-12-12T02:04:15.808Z,21.35
2022-12-12T02:06:43.970Z,18.87
2022-12-12T02:09:13.622Z,19.83
2022-12-12T02:11:47.734Z,19.38
2022-12-12T02:14:22.703Z,17.65
2022-12-12T02:17:14.817Z,19.27
2022-12-12T02:19:50.604Z,22.80
2022-12-12T02:22:31.518Z,17.65
2022-12-12T02:25:27.334Z,20.42
2022-12-12T02:28:22.471Z,20.27
2022-12-12T02:31:35.003Z,19.80
2022-12-12T02:34:30.997Z,19.35
2022-12-12T02:37:32.383Z,18.80
2022-12-12T02:40:17.230Z,20.42
2022-12-12T02:42:55.800Z,18.00
2022-12-12T02:45:51.722Z,21.42
2022-12-12T02:48:40.991Z,19.50
2022-12-12T02:51:11.697Z,21.38
2022-12-12T02:53:38.605Z,21.60
2022-12-12T02:56:44.228Z,18.13
2022-12-12T02:59:17.762Z,19.20
2022-12-12T03:01:53.677Z,20.95
2022-12-12T03:04:48.630Z,22.23
2022-12-12T03:07:48.935Z,19.02
2022-12-12T03:10:30.848Z,17.20
2022-12-12T03:13:10.154Z,18.73
2022-12-12T03:16:06.799Z,19.25
2022-12-12T03:19:00.786Z,19.02
2022-12-12T03:22:03.055Z,18.45
2022-12-12T03:24:47.472Z,16.63
2022-12-12T03:27:38.512Z,17.73
2022-12-12T03:30:12.026Z,21.75
2022-12-12T03:32:49.414Z,17.73
2022-12-12T03:35:23.603Z,19.70
2022-12-12T03:37:57.926Z,19.00
2022-12-12T03:40:59.079Z,17.13
2022-12-12T03:43:27.576Z,17.73
2022-12-12T03:46:19.175Z,16.17
2022-12-12T03:49:03.390Z,17.20
2022-12-12T03:51:32.953Z,17.70
2022-12-12T03:54:11.686Z,17.77
2022-12-12T03:56:51.305Z,19.30
2022-12-12T03:59:27.662Z,15.65
2022-12-12T04:02:19.700Z,17.10
2022-12-12T04:04:59.290Z,17.75
2022-12-12T04:07:33.944Z,15.98
2022-12-12T04:10:20.016Z,17.73
2022-12-12T04:13:04.764Z,18.45
2022-12-12T04:15:59.388Z,20.02
2022-12-12T04:18:29.343Z,17.73
2022-12-12T04:24:29.276Z,16.35
2022-12-12T04:27:11.379Z,15.95
2022-12-12T04:29:53.283Z,18.77
2022-12-12T04:32:28.459Z,19.38
2022-12-12T04:34:58.232Z,17.60
2022-12-12T04:37:33.223Z,15.25
2022-12-12T04:40:05.338Z,15.50
2022-12-12T04:42:38.143Z,14.57
2022-12-12T04:45:14.596Z,15.40
2022-12-12T04:47:45.666Z,15.13
2022-12-12T04:50:13.637Z,18.83
2022-12-12T04:52:41.886Z,15.73
2022-12-12T04:55:21.547Z,17.80
2022-12-12T04:57:51.807Z,19.30
2022-12-12T05:00:20.285Z,13.23
2022-12-12T05:02:54.617Z,15.85
2022-12-12T05:05:26.843Z,16.17
2022-12-12T05:08:00.473Z,18.25
2022-12-12T05:10:27.545Z,18.27
2022-12-12T05:12:58.953Z,17.38
2022-12-12T05:15:28.313Z,17.58
2022-12-12T05:18:00.730Z,16.10
2022-12-12T05:20:27.543Z,19.13
2022-12-12T05:22:54.332Z,17.50
2022-12-12T05:25:21.096Z,19.80
2022-12-12T05:27:47.982Z,16.92
2022-12-12T05:30:17.790Z,18.00
2022-12-12T05:32:44.923Z,19.38
2022-12-12T05:35:12.317Z,17.48
2022-12-12T05:37:39.484Z,19.35
2022-12-12T05:40:10.915Z,18.33
2022-12-12T05:42:37.684Z,16.90
2022-12-12T05:45:08.163Z,17.52
2022-12-12T05:47:35.251Z,15.50
2022-12-12T05:50:02.072Z,17.17
2022-12-12T05:52:30.176Z,16.50
2022-12-12T05:54:57.013Z,19.02
2022-12-12T05:57:24.389Z,15.20
2022-12-12T05:59:51.164Z,16.77
2022-12-12T06:02:17.992Z,17.08
2022-12-12T06:04:45.392Z,18.52
2022-12-12T06:07:12.233Z,15.43
2022-12-12T06:09:39.042Z,19.13
2022-12-12T06:12:05.967Z,19.55
2022-12-12T06:14:33.318Z,15.32
2022-12-12T06:17:00.129Z,17.98
2022-12-12T06:19:26.930Z,16.20
2022-12-12T06:21:53.755Z,18.23
2022-12-12T06:24:20.537Z,21.30
2022-12-12T06:26:47.487Z,18.13
2022-12-12T06:29:15.143Z,17.10
2022-12-12T06:31:42.044Z,17.67
2022-12-12T06:34:08.841Z,16.02
2022-12-12T06:36:36.588Z,16.08
2022-12-12T06:39:03.744Z,16.83
2022-12-12T06:41:31.925Z,16.95
2022-12-12T06:43:59.190Z,15.32
2022-12-12T06:46:28.231Z,15.88
2022-12-12T06:48:56.636Z,16.33
2022-12-12T06:51:27.126Z,16.90
2022-12-12T06:53:54.027Z,16.85
2022-12-12T06:56:23.739Z,24.27
2022-12-12T06:58:51.771Z,22.25
2022-12-12T07:01:20.204Z,19.80
2022-12-12T07:03:48.135Z,18.45
2022-12-12T07:06:15.226Z,16.33
2022-12-12T07:08:42.857Z,18.25
2022-12-12T07:11:15.091Z,18.35
2022-12-12T07:13:42.177Z,18.95
2022-12-12T07:16:09.370Z,18.58
2022-12-12T07:18:36.906Z,17.33
2022-12-12T07:21:14.252Z,17.65
2022-12-12T07:23:42.427Z,17.50
2022-12-12T07:26:13.754Z,17.95
2022-12-12T07:28:40.606Z,18.92
2022-12-12T07:31:15.664Z,17.10
2022-12-12T07:33:45.177Z,19.33
2022-12-12T07:36:14.238Z,15.48
2022-12-12T07:38:41.906Z,15.05
2022-12-12T07:41:13.136Z,16.70
2022-12-12T07:43:44.163Z,17.77
2022-12-12T07:46:30.934Z,15.77
2022-12-12T07:48:57.866Z,13.80
2022-12-12T07:51:24.989Z,16.17
2022-12-12T07:53:51.755Z,16.95
2022-12-12T07:56:20.592Z,16.40
2022-12-12T07:58:48.284Z,16.35
2022-12-12T08:01:26.876Z,17.13
2022-12-12T08:03:54.763Z,18.77
2022-12-12T08:06:23.309Z,20.42
2022-12-12T08:08:51.581Z,13.82
2022-12-12T08:11:22.170Z,15.38
2022-12-12T08:13:49.205Z,15.63
2022-12-12T08:16:25.979Z,15.13
2022-12-12T08:18:57.846Z,13.23
2022-12-12T08:21:26.739Z,13.60
2022-12-12T08:24:17.254Z,14.47
2022-12-12T08:26:44.975Z,13.35
2022-12-12T08:29:12.528Z,13.30
2022-12-12T08:31:40.143Z,14.63
2022-12-12T08:34:07.501Z,13.75
2022-12-12T08:36:35.792Z,12.00
2022-12-12T08:39:07.063Z,12.45
2022-12-12T08:41:36.330Z,11.60
2022-12-12T08:44:03.354Z,12.27
2022-12-12T08:46:30.604Z,11.70
2022-12-12T08:48:57.537Z,10.10
2022-12-12T08:51:24.506Z,10.88
2022-12-12T08:53:54.208Z,9.73
2022-12-12T08:56:41.119Z,10.18
2022-12-12T08:59:08.220Z,8.90
2022-12-12T09:01:35.314Z,8.90
2022-12-12T09:04:02.387Z,8.15
2022-12-12T09:06:29.322Z,9.20
2022-12-12T09:08:57.468Z,9.52
2022-12-12T09:11:24.910Z,7.90
2022-12-12T09:13:52.845Z,9.20
2022-12-12T09:16:22.199Z,9.20
2022-12-12T09:18:49.713Z,10.90
2022-12-12T09:21:17.089Z,9.93
2022-12-12T09:23:43.891Z,10.05
2022-12-12T09:26:10.948Z,9.10
2022-12-12T09:28:38.166Z,11.68
2022-12-12T09:31:09.435Z,10.20
2022-12-12T09:33:36.880Z,10.15
2022-12-12T09:36:06.617Z,12.32
2022-12-12T09:38:33.764Z,11.25
2022-12-12T09:41:00.600Z,10.00
2022-12-12T09:43:31.750Z,10.27
2022-12-12T09:46:00.376Z,11.63
2022-12-12T09:48:43.178Z,9.80
2022-12-12T09:51:14.157Z,10.38
2022-12-12T09:53:45.420Z,9.70
2022-12-12T09:56:21.050Z,11.23
2022-12-12T09:59:15.676Z,8.70
2022-12-12T10:02:00.951Z,10.73
2022-12-12T10:04:55.231Z,10.57
2022-12-12T10:08:05.981Z,11.35
2022-12-12T10:10:42.701Z,9.48
2022-12-12T10:13:31.212Z,8.88
2022-12-12T10:16:06.221Z,11.27
2022-12-12T10:18:41.255Z,10.82
2022-12-12T10:21:22.924Z,10.20
2022-12-12T10:23:54.123Z,10.38
2022-12-12T10:26:27.403Z,11.25
2022-12-12T10:28:59.079Z,11.77
2022-12-12T10:31:28.861Z,9.10
2022-12-12T10:34:01.660Z,11.88
2022-12-12T10:36:59.537Z,10.90
2022-12-12T10:39:26.547Z,11.43
2022-12-12T10:42:03.859Z,12.45
2022-12-12T10:44:47.656Z,10.75
2022-12-12T10:47:14.799Z,8.35
2022-12-12T10:49:42.153Z,13.57
2022-12-12T10:52:19.162Z,12.55
2022-12-12T10:54:51.153Z,10.40
2022-12-12T10:57:28.851Z,9.52
2022-12-12T10:59:58.206Z,9.77
2022-12-12T11:02:40.076Z,8.77
2022-12-12T11:05:16.858Z,9.63
2022-12-12T11:07:46.942Z,10.10
2022-12-12T11:10:30.597Z,10.98
2022-12-12T11:13:22.862Z,9.38
2022-12-12T11:16:02.253Z,7.47
2022-12-12T11:18:29.689Z,8.03
2022-12-12T11:21:03.751Z,8.00
2022-12-12T11:23:31.921Z,9.98
2022-12-12T11:26:20.082Z,8.82
2022-12-12T11:29:02.065Z,7.90
2022-12-12T11:31:34.340Z,6.57
2022-12-12T11:34:07.576Z,7.05
2022-12-12T11:36:37.432Z,7.05
2022-12-12T11:39:16.547Z,9.00
2022-12-12T11:42:15.275Z,9.07
2022-12-12T11:44:44.320Z,6.38
2022-12-12T11:47:50.281Z,5.03
2022-12-12T11:50:26.036Z,5.28
2022-12-12T11:53:03.040Z,8.30
2022-12-12T11:55:56.359Z,5.50
2022-12-12T11:58:31.763Z,6.72
2022-12-12T12:01:26.285Z,8.73
2022-12-12T12:03:56.209Z,5.32
2022-12-12T12:06:48.884Z,5.57
2022-12-12T12:09:25.758Z,6.50
2022-12-12T12:12:04.351Z,5.93
2022-12-12T12:14:31.096Z,8.68
2022-12-12T12:17:19.518Z,6.95
2022-12-12T12:20:03.931Z,5.78
2022-12-12T12:22:45.838Z,6.68
2022-12-12T12:25:25.171Z,7.18
2022-12-12T12:28:13.878Z,8.17
2022-12-12T12:30:55.919Z,6.75
2022-12-12T12:33:38.696Z,7.30
2022-12-12T12:36:05.472Z,7.72
2022-12-12T12:39:12.038Z,6.45
2022-12-12T12:42:20.169Z,6.40
2022-12-12T12:45:01.316Z,7.70
2022-12-12T12:47:49.211Z,8.65
2022-12-12T12:50:27.784Z,9.48
2022-12-12T12:53:02.704Z,8.35
2022-12-12T12:55:37.681Z,8.10
2022-12-12T12:58:06.881Z,10.15
2022-12-12T13:00:35.783Z,10.95
2022-12-12T13:03:08.047Z,10.23
2022-12-12T13:05:52.788Z,11.50
2022-12-12T13:08:41.707Z,7.47
2022-12-12T13:11:19.510Z,10.07
2022-12-12T13:13:48.737Z,9.25
2022-12-12T13:16:22.594Z,10.40
2022-12-12T13:19:06.258Z,9.75
2022-12-12T13:21:47.247Z,7.32
2022-12-12T13:24:23.270Z,8.50
2022-12-12T13:27:14.672Z,10.98
2022-12-12T13:30:02.583Z,10.90
2022-12-12T13:33:00.259Z,7.93
2022-12-12T13:35:49.679Z,10.73
2022-12-12T13:38:29.040Z,9.43
2022-12-12T13:41:01.862Z,7.90
2022-12-12T13:43:33.853Z,9.07
2022-12-12T13:46:20.456Z,10.40
2022-12-12T13:49:09.854Z,6.88
2022-12-12T13:51:44.636Z,8.67
2022-12-12T13:54:14.387Z,6.50
2022-12-12T13:59:27.403Z,8.40
2022-12-12T14:02:00.087Z,8.60
2022-12-12T14:04:43.720Z,10.32
2022-12-12T14:07:17.746Z,8.77
2022-12-12T14:09:49.644Z,7.53
2022-12-12T14:12:32.076Z,11.73
2022-12-12T14:15:01.396Z,8.50
2022-12-12T14:17:34.378Z,6.38
2022-12-12T14:20:07.794Z,6.60
2022-12-12T14:22:37.927Z,11.43
2022-12-12T14:27:50.821Z,8.15
2022-12-12T14:30:55.282Z,7.50
2022-12-12T14:33:43.615Z,10.30
2022-12-12T14:36:31.795Z,13.38
2022-12-12T14:39:23.649Z,13.18
2022-12-12T14:41:51.321Z,13.73
2022-12-12T14:44:36.683Z,11.77
2022-12-12T14:47:09.252Z,11.45
2022-12-12T14:49:36.653Z,14.88
2022-12-12T14:52:03.888Z,12.52
2022-12-12T14:54:31.760Z,12.40
2022-12-12T14:56:59.458Z,11.90
2022-12-12T14:59:33.763Z,10.23
2022-12-12T15:02:41.562Z,15.93
2022-12-12T15:05:08.827Z,12.07
2022-12-12T15:07:40.704Z,11.82
2022-12-12T15:10:26.070Z,11.77
2022-12-12T15:12:52.913Z,14.27
2022-12-12T15:15:30.581Z,10.25
2022-12-12T15:18:00.419Z,13.35
2022-12-12T15:20:30.014Z,13.48
2022-12-12T15:23:02.465Z,16.88
2022-12-12T15:25:34.797Z,16.95
2022-12-12T15:28:02.293Z,16.90
2022-12-12T15:30:41.869Z,15.48
2022-12-12T15:33:21.026Z,17.35
2022-12-12T15:36:02.739Z,16.00
2022-12-12T15:38:31.118Z,13.10
2022-12-12T15:40:59.927Z,15.70
2022-12-12T15:43:28.915Z,14.52
2022-12-12T15:46:02.579Z,14.15
2022-12-12T15:48:29.347Z,17.80
2022-12-12T15:50:57.972Z,16.95
2022-12-12T15:53:25.908Z,14.90
2022-12-12T15:56:08.051Z,15.65
2022-12-12T15:58:39.196Z,16.25
2022-12-12T16:01:21.304Z,14.95
2022-12-12T16:03:59.401Z,19.48
2022-12-12T16:06:28.976Z,16.95
2022-12-12T16:09:07.609Z,14.50
2022-12-12T16:11:43.432Z,16.85
2022-12-12T16:14:39.062Z,16.38
2022-12-12T16:17:21.093Z,16.80
2022-12-12T16:19:57.162Z,20.80
2022-12-12T16:22:39.537Z,14.73
2022-12-12T16:25:19.253Z,15.38
2022-12-12T16:27:49.324Z,16.20
2022-12-12T16:32:43.936Z,13.43
2022-12-12T16:35:21.863Z,17.25
2022-12-12T16:37:49.150Z,16.48
2022-12-12T16:40:18.272Z,15.32
2022-12-12T16:42:51.801Z,18.17
2022-12-12T16:45:18.643Z,17.35
2022-12-12T16:47:45.464Z,17.15
2022-12-12T16:50:14.229Z,18.95
2022-12-12T16:52:41.293Z,17.77
2022-12-12T16:55:22.184Z,19.20
2022-12-12T16:57:49.014Z,16.33
2022-12-12T17:00:16.797Z,18.00
2022-12-12T17:02:44.292Z,19.67
2022-12-12T17:05:17.904Z,18.83
2022-12-12T17:07:44.796Z,20.45
2022-12-12T17:10:12.524Z,23.33
2022-12-12T17:12:39.873Z,19.95
2022-12-12T17:15:07.701Z,19.90
2022-12-12T17:17:34.427Z,19.30
2022-12-12T17:20:01.198Z,21.17
2022-12-12T17:22:27.940Z,19.15
2022-12-12T17:24:54.655Z,22.52
2022-12-12T17:27:21.396Z,23.33
2022-12-12T17:29:48.171Z,24.45
2022-12-12T17:32:19.042Z,25.38
2022-12-12T17:34:48.429Z,28.33
2022-12-12T17:37:15.170Z,21.88
2022-12-12T17:39:41.969Z,20.02
2022-12-12T17:42:08.731Z,21.23
2022-12-12T17:44:35.523Z,23.92
2022-12-12T17:47:02.363Z,26.00
2022-12-12T17:49:29.076Z,20.50
2022-12-12T17:51:55.887Z,18.48
2022-12-12T17:54:22.968Z,21.17
2022-12-12T17:56:49.848Z,26.75
2022-12-12T17:59:16.565Z,25.92
2022-12-12T18:01:43.314Z,18.38
2022-12-12T18:04:10.322Z,23.17
2022-12-12T18:06:37.399Z,28.65
2022-12-12T18:09:04.957Z,29.05
2022-12-12T18:11:33.625Z,22.15
2022-12-12T18:14:02.757Z,21.17
2022-12-12T18:16:32.249Z,23.48
2022-12-12T18:18:59.653Z,23.65
2022-12-12T18:21:59.296Z,24.67
2022-12-12T18:24:17.600Z,23.08
2022-12-12T18:26:45.095Z,20.33
2022-12-12T18:29:13.252Z,23.73
2022-12-12T18:31:40.335Z,23.77
2022-12-12T18:34:07.097Z,20.90
2022-12-12T18:36:34.040Z,22.00
2022-12-12T18:39:04.136Z,21.75
2022-12-12T18:41:32.895Z,22.70
2022-12-12T18:44:08.131Z,21.67
2022-12-12T18:46:42.009Z,19.45
2022-12-12T18:49:09.978Z,20.55
2022-12-12T18:51:37.296Z,18.52
2022-12-12T18:54:10.941Z,19.13
2022-12-12T18:56:42.107Z,23.60
2022-12-12T18:59:08.996Z,19.70
2022-12-12T19:01:36.650Z,20.58
2022-12-12T19:04:10.928Z,19.92
2022-12-12T19:06:41.329Z,21.45
2022-12-12T19:09:17.199Z,18.90
2022-12-12T19:11:44.893Z,18.70
2022-12-12T19:14:13.858Z,17.02
2022-12-12T19:16:41.548Z,19.03
2022-12-12T19:19:12.199Z,19.25
2022-12-12T19:21:39.975Z,22.60
2022-12-12T19:24:09.352Z,17.02
2022-12-12T19:26:37.125Z,20.08
2022-12-12T19:29:06.748Z,17.50
2022-12-12T19:31:35.872Z,21.52
2022-12-12T19:34:05.055Z,17.95
2022-12-12T19:36:31.877Z,20.88
2022-12-12T19:39:00.970Z,17.60
2022-12-12T19:41:28.060Z,18.92
2022-12-12T19:43:57.258Z,24.10
2022-12-12T19:46:26.387Z,23.70
2022-12-12T19:48:58.372Z,23.40
2022-12-12T19:51:26.694Z,20.67
2022-12-12T19:53:56.992Z,23.23
2022-12-12T19:56:26.924Z,19.58
2022-12-12T19:58:54.769Z,22.75
2022-12-12T20:01:25.294Z,22.10
2022-12-12T20:03:57.817Z,22.25
2022-12-12T20:06:26.102Z,23.02
2022-12-12T20:08:53.207Z,19.25
2022-12-12T20:11:21.890Z,17.48
2022-12-12T20:13:50.615Z,17.42
2022-12-12T20:16:20.407Z,20.00
2022-12-12T20:21:51.869Z,20.70
2022-12-12T20:24:12.528Z,21.33
2022-12-12T20:26:40.295Z,18.85
2022-12-12T20:29:08.157Z,20.75
2022-12-12T20:31:43.593Z,17.55
2022-12-12T20:34:11.420Z,21.40
2022-12-12T20:36:38.653Z,17.45
2022-12-12T20:39:07.816Z,18.58
2022-12-12T20:41:38.368Z,18.05
2022-12-12T20:44:06.755Z,18.88
2022-12-12T20:46:37.196Z,18.88
2022-12-12T20:49:06.477Z,21.63
2022-12-12T20:54:22.325Z,18.40
2022-12-12T20:56:50.017Z,19.67
2022-12-12T20:59:16.926Z,19.70
2022-12-12T21:01:43.969Z,21.45
2022-12-12T21:04:11.175Z,18.15
2022-12-12T21:06:40.850Z,17.77
2022-12-12T21:09:10.017Z,21.08
2022-12-12T21:11:37.995Z,18.65
2022-12-12T21:14:06.551Z,20.10
2022-12-12T21:16:39.059Z,20.27
2022-12-12T21:19:11.345Z,18.90
2022-12-12T21:21:39.615Z,20.00
2022-12-12T21:24:07.263Z,19.92
2022-12-12T21:26:34.581Z,18.20
2022-12-12T21:29:02.693Z,19.48
2022-12-12T21:31:32.470Z,19.15
2022-12-12T21:34:00.435Z,24.77
2022-12-12T21:36:28.851Z,23.70
2022-12-12T21:38:57.607Z,18.08
2022-12-12T21:41:24.850Z,20.65
2022-12-12T21:43:52.313Z,18.38
2022-12-12T21:46:21.883Z,17.83
2022-12-12T21:49:09.432Z,21.38
2022-12-12T21:51:36.374Z,16.15
2022-12-12T21:54:04.508Z,19.40
2022-12-12T21:56:31.955Z,17.85
2022-12-12T21:58:59.503Z,24.15
2022-12-12T22:01:27.139Z,19.10
2022-12-12T22:03:54.875Z,17.00
2022-12-12T22:06:26.815Z,19.00
2022-12-12T22:08:58.282Z,23.85
2022-12-12T22:11:40.545Z,17.17
2022-12-12T22:14:13.651Z,19.05
2022-12-12T22:16:40.567Z,19.60
2022-12-12T22:19:10.590Z,21.17
2022-12-12T22:21:37.498Z,19.05
2022-12-12T22:24:05.107Z,17.48
2022-12-12T22:26:36.975Z,15.18
2022-12-12T22:29:09.843Z,17.75
2022-12-12T22:31:39.099Z,17.35
2022-12-12T22:34:10.517Z,19.02
2022-12-12T22:36:38.684Z,20.92
2022-12-12T22:39:07.862Z,16.52
2022-12-12T22:41:35.090Z,22.10
2022-12-12T22:44:04.420Z,21.70
2022-12-12T22:46:32.453Z,21.38
2022-12-12T22:49:01.319Z,20.38
2022-12-12T22:51:33.456Z,17.70
2022-12-12T22:54:03.362Z,19.35
2022-12-12T22:58:58.257Z,23.50
2022-12-12T23:01:25.433Z,22.92
2022-12-12T23:03:53.011Z,21.92
2022-12-12T23:06:34.219Z,22.25
2022-12-12T23:09:08.364Z,21.75
2022-12-12T23:11:35.658Z,22.25
2022-12-12T23:14:06.635Z,20.30
2022-12-12T23:16:36.834Z,20.95
2022-12-12T23:19:05.388Z,22.73
2022-12-12T23:21:33.039Z,18.73
2022-12-12T23:23:59.833Z,20.20
2022-12-12T23:26:30.111Z,19.50
2022-12-12T23:28:58.488Z,20.42
2022-12-12T23:31:31.451Z,18.95
2022-12-12T23:34:00.971Z,21.50
2022-12-12T23:36:28.411Z,22.60
2022-12-12T23:39:00.995Z,20.88
2022-12-12T23:41:28.648Z,24.65
2022-12-12T23:43:56.361Z,18.17
2022-12-12T23:46:29.837Z,19.80
2022-12-12T23:49:19.739Z,21.65
2022-12-12T23:51:54.144Z,20.83
2022-12-12T23:54:24.622Z,20.55
2022-12-12T23:56:51.843Z,19.88
2022-12-12T23:59:19.796Z,18.90
